Latest Weather Observations for Larapuna (Eddystone Point)

IDT60801

Issued at 5:02 pm EST Tuesday 26 September 2017 (issued every 30 minutes, with the page automatically refreshed every 10 minutes)

About weather observations | Map of weather stations | Latest weather observations for TAS | Other Formats
Station Details ID: 092045 Name: LARAPUNA (EDDYSTONE POINT) Lat: -40.99 Lon: 148.35 Height: 19.7 m
Data from the previous 72 hours. | See also: Recent months at Larapuna (Eddystone Point)
Date/Time
EST
Temp
°C
App
Temp
°C
Dew
Point
°C
Rel
Hum
%
Delta-T
°C
Wind Press
QNH
hPa
Press
MSL
hPa
Rain since
9am
mm
Dir  Spd
km/h
Gust
km/h
Spd
kts
Gust
kts
26/05:00pm 12.0 5.5 4.5 60 3.4 WNW 28 39 15 21 1013.7 1013.7 0.2
26/04:30pm 12.4 5.0 4.1 57 3.7 NW 32 41 17 22 1013.5 1013.5 0.2
26/04:00pm 13.1 6.5 4.0 54 4.1 NW 28 37 15 20 1013.5 1013.5 0.2
26/03:30pm 13.8 7.5 1.8 44 5.2 NW 24 32 13 17 1013.6 1013.6 0.2
26/03:00pm 14.4 8.4 3.5 48 4.9 NW 24 33 13 18 1013.6 1013.6 0.2
26/02:30pm 13.3 6.2 3.4 51 4.4 NNW 30 39 16 21 1013.5 1013.5 0.2
26/02:00pm 13.0 5.1 4.4 56 3.9 N 35 43 19 23 1013.6 1013.6 0.2
26/01:30pm 12.8 5.2 5.9 63 3.3 N 35 43 19 23 1013.7 1013.7 0.2
26/01:00pm 11.8 4.6 5.0 63 3.1 N 32 41 17 22 1013.9 1013.9 0.2
26/12:30pm 13.5 6.8 3.8 52 4.4 N 28 35 15 19 1014.1 1014.1 0.2
26/12:00pm 13.3 6.5 3.1 50 4.5 N 28 32 15 17 1014.2 1014.2 0.2
26/11:30am 13.8 7.4 5.2 56 4.0 N 28 33 15 18 1014.4 1014.4 0.2
26/11:00am 13.0 7.3 4.7 57 3.8 N 24 30 13 16 1014.6 1014.6 0.2
26/10:30am 12.4 7.6 2.8 52 4.2 N 17 24 9 13 1014.6 1014.6 0.0
26/10:00am 13.2 8.7 4.1 54 4.1 N 17 22 9 12 1014.5 1014.5 0.0
26/09:30am 12.4 8.7 2.6 51 4.3 N 11 15 6 8 1014.6 1014.6 0.0
26/09:00am 12.6 8.5 2.5 50 4.4 SW 13 17 7 9 1014.7 1014.7 3.4
26/08:30am 10.7 7.4 2.5 57 3.5 NNW 9 13 5 7 1014.3 1014.3 3.4
26/08:00am 9.5 6.9 4.1 69 2.4 NW 7 11 4 6 1014.3 1014.3 3.4
26/07:30am 7.7 3.6 2.0 67 2.3 W 13 17 7 9 1013.8 1013.8 3.4
26/07:00am 6.1 1.4 0.6 68 2.2 W 15 19 8 10 1013.5 1013.5 3.4
26/06:30am 5.3 0.1 0.1 69 2.0 W 17 19 9 10 1013.2 1013.2 3.4
26/06:00am 3.9 -1.8 -0.5 73 1.6 W 19 24 10 13 1013.0 1013.0 3.4
26/05:30am 4.0 -1.8 0.0 75 1.5 W 20 24 11 13 1012.6 1012.6 3.4
26/05:00am 3.3 -2.4 -0.5 76 1.4 W 19 22 10 12 1012.1 1012.1 3.4
26/04:30am 3.5 -2.2 -0.5 75 1.5 W 19 22 10 12 1011.7 1011.7 3.4
26/04:00am 4.3 -1.5 0.1 74 1.6 W 20 26 11 14 1011.3 1011.3 3.4
26/03:30am 4.2 -1.0 0.0 74 1.6 W 17 20 9 11 1011.0 1011.0 3.4
26/03:00am 4.2 -1.0 0.2 75 1.5 W 17 20 9 11 1010.9 1010.9 3.4
26/02:30am 4.9 -0.5 1.0 76 1.5 W 19 22 10 12 1010.7 1010.7 3.4
26/02:00am 4.6 -0.8 1.1 78 1.4 W 19 20 10 11 1010.5 1010.5 3.4
26/01:30am 4.6 -0.3 1.8 82 1.1 W 17 20 9 11 1010.3 1010.3 3.4
26/01:00am 5.2 1.2 2.6 83 1.1 WSW 13 15 7 8 1010.0 1010.0 3.4
26/12:30am 5.7 1.4 3.2 84 1.0 WSW 15 19 8 10 1009.7 1009.7 3.4
26/12:00am 6.1 1.8 3.3 82 1.2 SW 15 20 8 11 1009.4 1009.4 3.4
 
Date/Time
EST
Temp
°C
App
Temp
°C
Dew
Point
°C
Rel
Hum
%
Delta-T
°C
Wind Press
QNH
hPa
Press
MSL
hPa
Rain since
9am
mm
Dir  Spd
km/h
Gust
km/h
Spd
kts
Gust
kts
25/11:30pm 6.6 1.6 3.6 81 1.3 W 19 22 10 12 1009.0 1009.0 3.4
25/11:00pm 7.3 2.4 5.0 85 1.0 WNW 20 22 11 12 1008.8 1008.8 3.4
25/10:30pm 8.4 5.8 5.9 84 1.1 SW 9 17 5 9 1008.6 1008.6 3.4
25/10:00pm 8.9 4.9 6.7 86 1.0 SSE 17 20 9 11 1008.2 1008.2 3.4
25/09:30pm 9.5 5.1 7.6 88 0.9 SE 20 26 11 14 1007.7 1007.7 3.4
25/09:00pm 9.4 5.0 7.5 88 0.9 SE 20 26 11 14 1007.6 1007.6 3.4
25/08:30pm 9.7 4.3 7.8 88 0.9 SE 26 33 14 18 1007.2 1007.2 2.2
25/08:00pm 9.6 4.5 7.7 88 0.9 SSE 24 28 13 15 1006.7 1006.7 2.2
25/07:30pm 9.7 3.4 7.6 87 1.0 SSE 30 39 16 21 1006.1 1006.1 2.2
25/07:00pm 10.2 3.3 7.3 82 1.4 SSE 33 43 18 23 1005.5 1005.5 2.2
25/06:43pm 11.8 4.9 6.3 69 2.6 SSW 32 56 17 30 1004.9 1004.9 0.0
25/06:30pm 11.7 5.6 4.9 63 3.1 SW 26 35 14 19 1004.6 1004.6 0.0
25/06:00pm 11.5 6.1 4.3 61 3.3 W 22 32 12 17 1003.7 1003.7 0.0
25/05:30pm 12.6 6.0 4.3 57 3.8 WNW 28 39 15 21 1003.3 1003.3 0.0
25/05:00pm 13.6 7.5 4.7 55 4.1 WNW 26 32 14 17 1002.8 1002.8 0.0
25/04:30pm 14.0 6.5 4.6 53 4.3 WNW 33 44 18 24 1002.4 1002.4 0.0
25/04:00pm 14.3 7.0 4.6 52 4.5 WNW 32 43 17 23 1001.8 1001.8 0.0
25/03:35pm 15.1 8.6 4.5 49 4.9 WNW 28 46 15 25 1001.5 1001.5 0.0
25/03:30pm 14.7 7.4 4.7 51 4.7 WNW 32 46 17 25 1001.4 1001.4 0.0
25/03:00pm 15.1 7.7 3.9 47 5.2 WNW 32 50 17 27 1001.2 1001.2 0.0
25/02:36pm 15.7 8.3 4.1 46 5.4 W 32 50 17 27 1000.8 1000.8 0.0
25/02:30pm 15.4 7.3 3.5 45 5.4 W 35 50 19 27 1000.8 1000.8 0.0
25/02:00pm 15.7 8.3 5.0 49 5.1 W 33 52 18 28 1000.7 1000.7 0.0
25/01:30pm 15.7 9.1 4.1 46 5.4 W 28 43 15 23 1000.5 1000.5 0.0
25/01:13pm 15.9 9.4 2.7 41 6.0 W 26 46 14 25 1000.5 1000.5 0.0
25/01:00pm 15.7 8.0 2.2 40 6.1 WSW 32 44 17 24 1000.5 1000.5 0.0
25/12:30pm 15.3 7.8 1.4 39 6.1 W 30 43 16 23 1000.3 1000.3 0.0
25/12:00pm 15.3 8.3 2.1 41 5.9 W 28 48 15 26 1000.3 1000.3 0.0
25/11:43am 15.1 7.3 2.0 41 5.8 WSW 32 50 17 27 1000.0 1000.0 0.0
25/11:30am 14.9 7.5 1.8 41 5.7 W 30 39 16 21 1000.1 1000.1 0.0
25/11:00am 14.5 6.8 2.1 43 5.5 W 32 52 17 28 1000.0 1000.0 0.0
25/10:47am 13.9 5.5 1.5 43 5.4 W 35 54 19 29 999.8 999.8 0.0
25/10:30am 13.5 5.8 2.1 46 5.0 W 32 46 17 25 1000.1 1000.1 0.0
25/10:01am 13.2 5.9 2.4 48 4.7 W 30 50 16 27 999.8 999.8 0.0
25/10:00am 13.3 6.3 2.2 47 4.9 W 28 39 15 21 999.8 999.8 0.0
25/09:40am 12.9 6.3 4.1 55 4.0 W 28 46 15 25 999.8 999.8 0.0
25/09:30am 12.1 4.3 2.8 53 4.1 W 33 48 18 26 999.7 999.7 0.0
25/09:17am 12.1 4.7 4.1 58 3.6 W 32 50 17 27 999.4 999.4 0.0
25/09:00am 11.1 2.6 3.4 59 3.4 W 37 54 20 29 999.0 999.0 4.2
25/08:30am 10.4 0.9 3.7 63 2.9 W 43 57 23 31 998.5 998.5 4.2
25/08:25am 10.3 1.5 3.8 64 2.9 W 39 57 21 31 998.3 998.3 4.2
25/08:00am 9.9 2.0 4.3 68 2.5 W 35 48 19 26 998.5 998.5 4.2
25/07:30am 9.2 1.9 4.4 72 2.1 W 32 44 17 24 998.5 998.5 4.2
25/07:00am 8.5 1.2 4.7 77 1.7 W 32 43 17 23 998.1 998.1 4.2
25/06:30am 8.1 1.2 4.7 79 1.5 WNW 30 39 16 21 997.5 997.5 4.2
25/06:00am 8.1 2.1 5.2 82 1.3 WNW 26 39 14 21 996.9 996.9 4.2
25/05:30am 8.4 1.7 5.7 83 1.2 WNW 30 43 16 23 996.0 996.0 4.2
25/05:00am 8.6 2.1 6.4 86 1.0 WNW 30 39 16 21 995.4 995.4 4.2
25/04:30am 8.8 4.2 6.6 86 1.0 WNW 20 28 11 15 995.1 995.1 4.2
25/04:00am 8.7 5.5 6.7 87 0.9 W 13 17 7 9 994.8 994.8 4.2
25/03:30am 9.2 5.3 7.2 87 0.9 W 17 22 9 12 994.3 994.3 4.2
25/03:00am 9.6 4.4 7.4 86 1.1 WNW 24 32 13 17 993.7 993.7 4.2
25/02:30am 9.9 5.6 7.7 86 1.1 WNW 20 32 11 17 993.5 993.5 4.2
25/02:00am 10.1 5.8 8.0 87 1.0 W 20 30 11 16 993.1 993.1 4.2
25/01:30am 10.4 5.1 8.5 88 0.9 WNW 26 37 14 20 992.9 992.9 4.2
25/01:00am 10.6 4.7 8.9 89 0.8 WNW 30 41 16 22 992.4 992.4 4.2
25/12:32am 10.9 4.1 9.3 90 0.8 WNW 35 54 19 29 992.0 992.0 4.2
25/12:30am 10.9 3.7 9.3 90 0.8 WNW 37 54 20 29 991.9 991.9 4.2
25/12:24am 10.9 4.7 9.3 90 0.8 WNW 32 52 17 28 991.7 991.7 4.2
25/12:00am 10.7 4.8 9.1 90 0.8 WNW 30 43 16 23 991.9 991.9 4.2
 
Date/Time
EST
Temp
°C
App
Temp
°C
Dew
Point
°C
Rel
Hum
%
Delta-T
°C
Wind Press
QNH
hPa
Press
MSL
hPa
Rain since
9am
mm
Dir  Spd
km/h
Gust
km/h
Spd
kts
Gust
kts
24/11:30pm 10.1 5.2 8.5 90 0.8 W 24 33 13 18 992.0 992.0 4.2
24/11:00pm 9.9 2.5 8.3 90 0.8 WNW 37 56 20 30 991.6 991.6 4.2
24/10:58pm 9.9 2.5 8.3 90 0.8 WNW 37 56 20 30 991.6 991.6 4.2
24/10:30pm 9.8 2.3 7.9 88 0.9 WNW 37 52 20 28 991.9 991.9 3.4
24/10:23pm 10.0 2.2 8.1 88 0.9 WNW 39 52 21 28 992.0 992.0 3.2
24/10:00pm 10.9 2.3 8.8 87 1.0 NW 44 67 24 36 992.1 992.1 2.2
24/09:30pm 12.1 3.5 8.8 80 1.6 NW 44 67 24 36 991.7 991.7 0.8
24/09:12pm 12.0 3.4 8.3 78 1.8 WNW 43 63 23 34 991.9 991.9 0.8
24/09:00pm 12.0 3.4 8.1 77 1.9 WNW 43 57 23 31 992.1 992.1 0.8
24/08:30pm 11.9 3.7 8.0 77 1.9 WNW 41 61 22 33 992.5 992.5 0.8
24/08:00pm 12.3 3.9 8.8 79 1.8 NW 43 61 23 33 992.3 992.3 0.8
24/07:43pm 12.1 3.9 8.4 78 1.8 WNW 41 59 22 32 992.2 992.2 0.8
24/07:30pm 12.1 2.9 8.2 77 1.9 NW 46 59 25 32 992.0 992.0 0.8
24/07:00pm 12.1 3.1 8.8 80 1.7 WNW 46 67 25 36 991.6 991.6 0.8
24/06:53pm 11.9 2.9 8.7 81 1.6 WNW 46 67 25 36 991.5 991.5 0.8
24/06:30pm 11.6 3.2 9.0 84 1.3 WNW 43 59 23 32 991.5 991.5 0.8
24/06:00pm 11.3 2.5 8.2 81 1.5 WNW 44 69 24 37 992.0 992.0 0.4
24/05:55pm 11.8 3.7 8.6 81 1.6 WNW 41 69 22 37 992.1 992.1 0.4
24/05:30pm 11.6 4.3 8.8 83 1.4 WNW 37 54 20 29 991.7 991.7 0.4
24/05:07pm 10.9 3.5 8.5 85 1.2 WNW 37 56 20 30 991.8 991.8 0.4
24/05:00pm 10.8 3.4 8.4 85 1.2 WNW 37 50 20 27 991.7 991.7 0.4
24/04:30pm 11.1 0.6 7.4 78 1.8 WNW 52 76 28 41 991.7 991.7 0.0
24/04:00pm 13.0 1.1 7.2 68 2.8 NW 59 80 32 43 990.9 990.9 0.0
24/03:30pm 12.6 1.5 7.9 73 2.3 NW 56 74 30 40 991.2 991.2 0.0
24/03:00pm 13.0 2.3 8.1 72 2.4 WNW 54 80 29 43 991.6 991.6 0.0
24/02:30pm 14.3 3.0 8.0 66 3.1 WNW 57 80 31 43 991.1 991.1 0.0
24/02:00pm 14.7 3.9 7.7 63 3.5 WNW 54 78 29 42 990.9 990.9 0.0
24/01:30pm 14.6 2.3 6.9 60 3.8 WNW 61 83 33 45 990.6 990.6 0.0
24/01:00pm 14.0 3.6 7.8 66 3.1 WNW 52 76 28 41 990.7 990.7 0.0
24/12:30pm 14.2 3.0 7.5 64 3.3 WNW 56 87 30 47 990.7 990.7 0.0
24/12:00pm 13.4 2.7 6.3 62 3.4 WNW 52 80 28 43 990.6 990.6 0.0
24/11:30am 12.9 1.8 6.3 64 3.1 NW 54 72 29 39 990.9 990.9 0.0
24/11:06am 12.9 2.2 6.5 65 3.1 WNW 52 76 28 41 990.6 990.6 0.0
24/11:04am 13.1 1.7 6.9 66 3.0 WNW 56 83 30 45 990.6 990.6 0.0
24/11:00am 13.3 1.3 6.6 64 3.3 WNW 59 83 32 45 990.5 990.5 0.0
24/10:55am 13.9 1.7 7.2 64 3.3 WNW 61 87 33 47 990.3 990.3 0.0
24/10:54am 14.1 2.0 7.9 66 3.1 WNW 61 87 33 47 990.2 990.2 0.0
24/10:30am 14.3 5.2 8.3 67 3.0 WNW 46 70 25 38 990.3 990.3 0.0
24/10:00am 14.4 3.2 7.5 63 3.4 NW 56 82 30 44 989.9 989.9 0.0
24/09:30am 14.7 4.3 9.1 69 2.9 WNW 54 72 29 39 990.4 990.4 0.0
24/09:00am 14.0 3.5 8.8 71 2.7 NW 54 78 29 42 990.9 990.9 0.0
24/08:30am 13.6 4.3 9.1 74 2.3 WNW 48 70 26 38 991.1 991.1 0.0
24/08:01am 12.9 4.4 9.4 79 1.8 WNW 44 63 24 34 991.7 991.7 0.0
24/08:00am 12.9 4.4 9.4 79 1.8 WNW 44 57 24 31 991.7 991.7 0.0
24/07:39am 13.3 4.4 9.2 76 2.1 NW 46 65 25 35 991.9 991.9 0.0
24/07:30am 12.9 3.7 9.4 79 1.8 NW 48 61 26 33 991.9 991.9 0.0
24/07:00am 12.9 4.6 9.4 79 1.8 NW 43 59 23 32 992.1 992.1 0.0
24/06:53am 12.6 5.5 9.4 81 1.6 NW 37 57 20 31 992.2 992.2 0.0
24/06:30am 12.2 4.6 9.0 81 1.6 NW 39 52 21 28 992.4 992.4 0.0
24/06:00am 12.1 4.9 9.1 82 1.5 NW 37 52 20 28 992.1 992.1 0.0
24/05:48am 12.0 4.8 9.0 82 1.5 NW 37 56 20 30 991.9 991.9 0.0
24/05:30am 12.2 5.7 9.0 81 1.6 NW 33 46 18 25 991.9 991.9 0.0
24/05:00am 12.3 5.1 9.1 81 1.6 WNW 37 56 20 30 992.0 992.0 0.0
24/04:30am 12.3 5.4 8.8 79 1.7 WNW 35 56 19 30 991.9 991.9 0.0
24/04:00am 12.7 4.6 8.6 76 2.1 WNW 41 63 22 34 991.6 991.6 0.0
24/03:30am 12.6 3.9 8.5 76 2.0 W 44 63 24 34 991.2 991.2 0.0
24/03:03am 12.7 4.2 8.6 76 2.0 W 43 61 23 33 990.9 990.9 0.0
24/03:00am 12.7 4.0 8.6 76 2.1 W 44 61 24 33 990.9 990.9 0.0
24/02:30am 12.8 4.2 8.7 76 2.1 W 44 65 24 35 990.9 990.9 0.0
24/02:01am 12.8 5.5 8.9 77 2.0 WNW 37 59 20 32 991.3 991.3 0.0
24/02:00am 12.8 5.9 8.9 77 2.0 WNW 35 52 19 28 991.3 991.3 0.0
24/01:30am 13.0 5.1 9.3 78 1.9 WNW 41 63 22 34 991.3 991.3 0.0
24/01:00am 13.0 5.5 9.6 80 1.8 WNW 39 57 21 31 991.6 991.6 0.0
24/12:32am 12.9 6.3 9.9 82 1.5 WNW 35 54 19 29 991.9 991.9 0.0
24/12:30am 12.9 6.3 9.9 82 1.5 WNW 35 50 19 27 991.9 991.9 0.0
24/12:00am 12.6 6.2 9.2 80 1.7 NW 33 52 18 28 992.0 992.0 0.0
 
Date/Time
EST
Temp
°C
App
Temp
°C
Dew
Point
°C
Rel
Hum
%
Delta-T
°C
Wind Press
QNH
hPa
Press
MSL
hPa
Rain since
9am
mm
Dir  Spd
km/h
Gust
km/h
Spd
kts
Gust
kts
23/11:57pm 12.6 6.2 9.2 80 1.7 NW 33 52 18 28 992.0 992.0 0.0
23/11:30pm 12.9 5.9 8.4 74 2.2 WNW 35 52 19 28 991.9 991.9 0.0
23/11:05pm 13.0 5.8 7.7 70 2.6 WNW 35 54 19 29 991.9 991.9 0.0
23/11:00pm 13.2 5.2 7.4 68 2.9 WNW 39 54 21 29 991.8 991.8 0.0
23/10:34pm 14.0 6.2 6.6 61 3.6 WNW 37 59 20 32 990.9 990.9 0.0
23/10:30pm 14.0 6.2 6.6 61 3.6 WNW 37 52 20 28 991.0 991.0 0.0
23/10:08pm 14.7 6.4 6.3 57 4.0 WNW 39 57 21 31 990.7 990.7 0.0
23/10:00pm 15.1 6.8 5.9 54 4.5 WNW 39 56 21 30 990.1 990.1 0.0
23/09:30pm 15.6 6.5 6.1 53 4.6 W 43 63 23 34 990.1 990.1 0.0
23/09:15pm 16.1 5.0 6.3 52 4.8 W 54 80 29 43 990.2 990.2 0.0
23/09:02pm 15.4 6.8 8.2 62 3.6 W 43 61 23 33 990.3 990.3 0.0
23/09:00pm 15.3 6.8 8.5 64 3.5 W 43 57 23 31 990.4 990.4 0.0
23/08:30pm 14.9 8.9 10.7 76 2.2 W 33 54 18 29 990.0 990.0 0.0
23/08:14pm 14.8 9.4 12.1 84 1.5 W 32 50 17 27 989.4 989.4 0.0
23/08:00pm 12.5 8.6 10.9 90 0.8 WNW 22 44 12 24 989.6 989.6 0.0
23/07:30pm 12.7 11.7 11.1 90 0.8 SSW 7 13 4 7 988.2 988.2 0.0
23/07:00pm 12.8 11.9 11.2 90 0.9 SSE 7 13 4 7 988.1 988.1 0.0
23/06:30pm 12.8 10.7 11.2 90 0.8 SSE 13 17 7 9 988.2 988.2 0.0
23/06:00pm 12.8 10.3 11.0 89 1.0 S 15 19 8 10 988.3 988.3 0.0
23/05:30pm 13.2 9.8 11.3 88 1.0 SSW 20 24 11 13 988.5 988.5 0.0

Other Formats:

Comma delimited format used in spreadsheet applications
http://www.bom.gov.au/fwo/IDT60801/IDT60801.94983.axf

JavaScript Object Notation format (JSON) in row-major order
http://www.bom.gov.au/fwo/IDT60801/IDT60801.94983.json